createdAt,value
2022-12-04T00:01:50.605Z,21.80
2022-12-04T00:04:18.172Z,21.40
2022-12-04T00:06:45.744Z,17.77
2022-12-04T00:09:16.182Z,19.80
2022-12-04T00:11:43.937Z,21.90
2022-12-04T00:14:11.553Z,19.90
2022-12-04T00:16:39.227Z,19.55
2022-12-04T00:19:06.861Z,21.45
2022-12-04T00:21:34.451Z,18.50
2022-12-04T00:24:02.102Z,22.60
2022-12-04T00:26:31.167Z,17.05
2022-12-04T00:28:58.901Z,21.05
2022-12-04T00:31:27.592Z,19.15
2022-12-04T00:33:55.232Z,20.75
2022-12-04T00:36:24.120Z,20.35
2022-12-04T00:38:51.990Z,21.02
2022-12-04T00:41:21.206Z,18.92
2022-12-04T00:43:48.811Z,19.98
2022-12-04T00:46:16.493Z,17.52
2022-12-04T00:48:44.317Z,18.30
2022-12-04T00:51:13.614Z,25.30
2022-12-04T00:53:41.227Z,20.63
2022-12-04T00:56:10.174Z,20.33
2022-12-04T00:58:38.109Z,17.83
2022-12-04T01:01:07.319Z,19.27
2022-12-04T01:03:35.541Z,19.70
2022-12-04T01:06:03.405Z,24.25
2022-12-04T01:08:31.229Z,20.70
2022-12-04T01:10:58.857Z,18.48
2022-12-04T01:13:26.997Z,19.98
2022-12-04T01:15:54.572Z,21.40
2022-12-04T01:18:23.393Z,19.98
2022-12-04T01:20:52.571Z,18.75
2022-12-04T01:23:20.597Z,20.65
2022-12-04T01:25:55.360Z,18.33
2022-12-04T01:28:23.372Z,19.80
2022-12-04T01:31:03.979Z,19.90
2022-12-04T01:33:32.396Z,14.52
2022-12-04T01:36:00.912Z,20.40
2022-12-04T01:38:28.881Z,23.45
2022-12-04T01:40:56.827Z,18.42
2022-12-04T01:43:24.840Z,19.08
2022-12-04T01:45:56.575Z,19.67
2022-12-04T01:48:24.248Z,19.92
2022-12-04T01:50:54.087Z,18.27
2022-12-04T01:53:21.838Z,20.00
2022-12-04T01:55:49.369Z,20.48
2022-12-04T01:58:19.687Z,21.13
2022-12-04T02:00:51.649Z,18.47
2022-12-04T02:03:19.624Z,18.70
2022-12-04T02:05:47.243Z,20.20
2022-12-04T02:08:14.867Z,19.13
2022-12-04T02:10:46.114Z,20.20
2022-12-04T02:15:47.084Z,17.70
2022-12-04T02:18:36.750Z,19.77
2022-12-04T02:21:14.813Z,19.02
2022-12-04T02:23:51.471Z,19.10
2022-12-04T02:26:39.739Z,21.30
2022-12-04T02:29:20.343Z,20.35
2022-12-04T02:31:52.525Z,21.23
2022-12-04T02:34:38.467Z,19.27
2022-12-04T02:37:09.434Z,19.77
2022-12-04T02:39:41.338Z,21.45
2022-12-04T02:42:13.653Z,19.35
2022-12-04T02:44:47.333Z,18.60
2022-12-04T02:47:17.268Z,20.73
2022-12-04T02:49:50.886Z,22.52
2022-12-04T02:52:21.154Z,20.15
2022-12-04T02:54:51.920Z,15.07
2022-12-04T02:57:25.604Z,21.77
2022-12-04T02:59:54.528Z,19.60
2022-12-04T03:02:25.186Z,18.60
2022-12-04T03:04:55.123Z,20.45
2022-12-04T03:07:28.851Z,18.58
2022-12-04T03:09:58.835Z,22.50
2022-12-04T03:12:35.608Z,18.65
2022-12-04T03:15:05.563Z,20.35
2022-12-04T03:17:54.476Z,23.23
2022-12-04T03:20:22.522Z,19.58
2022-12-04T03:22:52.416Z,21.67
2022-12-04T03:25:20.091Z,23.55
2022-12-04T03:27:54.809Z,21.95
2022-12-04T03:30:25.270Z,21.10
2022-12-04T03:32:57.577Z,22.45
2022-12-04T03:35:32.044Z,22.73
2022-12-04T03:38:02.549Z,24.30
2022-12-04T03:40:36.228Z,22.35
2022-12-04T03:43:09.524Z,22.48
2022-12-04T03:45:52.560Z,20.38
2022-12-04T03:48:25.712Z,20.75
2022-12-04T03:50:56.751Z,18.02
2022-12-04T03:53:28.706Z,22.00
2022-12-04T03:56:02.691Z,19.15
2022-12-04T03:58:32.134Z,21.02
2022-12-04T04:01:00.737Z,22.35
2022-12-04T04:03:34.262Z,21.83
2022-12-04T04:06:13.249Z,21.27
2022-12-04T04:08:42.149Z,19.02
2022-12-04T04:11:09.676Z,21.70
2022-12-04T04:14:12.081Z,22.27
2022-12-04T04:17:00.643Z,22.50
2022-12-04T04:19:49.431Z,20.88
2022-12-04T04:22:36.948Z,18.80
2022-12-04T04:25:24.697Z,18.65
2022-12-04T04:27:53.510Z,18.50
2022-12-04T04:30:21.609Z,22.30
2022-12-04T04:32:53.524Z,22.33
2022-12-04T04:35:27.144Z,20.15
2022-12-04T04:37:57.416Z,19.17
2022-12-04T04:40:25.037Z,21.27
2022-12-04T04:42:58.708Z,18.83
2022-12-04T04:45:46.473Z,20.58
2022-12-04T04:48:24.261Z,23.38
2022-12-04T04:50:52.676Z,23.08
2022-12-04T04:53:22.396Z,21.35
2022-12-04T04:55:50.503Z,20.10
2022-12-04T04:58:19.470Z,22.77
2022-12-04T05:00:51.863Z,18.48
2022-12-04T05:03:19.473Z,24.58
2022-12-04T05:05:47.000Z,21.02
2022-12-04T05:08:14.601Z,20.40
2022-12-04T05:10:42.270Z,21.38
2022-12-04T05:13:10.736Z,21.90
2022-12-04T05:15:38.277Z,21.90
2022-12-04T05:18:06.133Z,21.25
2022-12-04T05:20:33.879Z,22.55
2022-12-04T05:23:01.455Z,22.95
2022-12-04T05:25:29.136Z,20.38
2022-12-04T05:27:56.649Z,21.42
2022-12-04T05:30:24.308Z,19.40
2022-12-04T05:32:51.896Z,21.25
2022-12-04T05:35:19.352Z,20.08
2022-12-04T05:37:47.356Z,20.83
2022-12-04T05:40:15.023Z,21.63
2022-12-04T05:42:42.567Z,19.90
2022-12-04T05:45:10.236Z,20.55
2022-12-04T05:47:45.914Z,21.20
2022-12-04T05:50:14.081Z,23.20
2022-12-04T05:52:41.595Z,19.85
2022-12-04T05:55:09.141Z,22.67
2022-12-04T05:57:36.651Z,18.27
2022-12-04T06:00:05.036Z,22.45
2022-12-04T06:02:38.807Z,22.73
2022-12-04T06:05:06.627Z,19.45
2022-12-04T06:07:34.153Z,19.55
2022-12-04T06:10:01.707Z,20.50
2022-12-04T06:12:30.336Z,27.27
2022-12-04T06:14:57.963Z,19.98
2022-12-04T06:17:25.576Z,23.00
2022-12-04T06:19:56.415Z,22.58
2022-12-04T06:24:51.726Z,24.33
2022-12-04T06:27:28.080Z,21.33
2022-12-04T06:29:56.267Z,22.17
2022-12-04T06:32:23.989Z,23.40
2022-12-04T06:34:55.000Z,22.05
2022-12-04T06:37:24.131Z,23.48
2022-12-04T06:39:51.678Z,23.80
2022-12-04T06:42:19.249Z,26.55
2022-12-04T06:44:46.965Z,27.33
2022-12-04T06:47:14.617Z,23.48
2022-12-04T06:49:42.228Z,23.20
2022-12-04T06:52:09.841Z,24.33
2022-12-04T06:54:37.428Z,25.13
2022-12-04T06:57:04.943Z,24.40
2022-12-04T06:59:33.860Z,22.63
2022-12-04T07:02:01.404Z,24.45
2022-12-04T07:04:29.038Z,24.73
2022-12-04T07:06:56.570Z,23.40
2022-12-04T07:09:24.116Z,24.50
2022-12-04T07:11:52.936Z,23.60
2022-12-04T07:14:20.502Z,25.67
2022-12-04T07:16:48.165Z,26.85
2022-12-04T07:19:15.685Z,25.80
2022-12-04T07:21:43.817Z,26.95
2022-12-04T07:24:15.653Z,24.33
2022-12-04T07:26:43.536Z,25.92
2022-12-04T07:29:11.084Z,26.20
2022-12-04T07:31:38.858Z,28.60
2022-12-04T07:34:06.723Z,27.70
2022-12-04T07:36:34.247Z,27.23
2022-12-04T07:39:01.865Z,22.48
2022-12-04T07:41:29.369Z,23.13
2022-12-04T07:43:56.954Z,25.98
2022-12-04T07:46:27.675Z,25.13
2022-12-04T07:48:56.616Z,26.75
2022-12-04T07:51:27.196Z,25.88
2022-12-04T07:53:55.525Z,20.50
2022-12-04T07:56:22.974Z,25.80
2022-12-04T07:58:50.490Z,26.25
2022-12-04T08:01:26.546Z,25.23
2022-12-04T08:03:55.999Z,28.17
2022-12-04T08:06:24.647Z,27.30
2022-12-04T08:08:53.759Z,28.27
2022-12-04T08:11:24.691Z,24.15
2022-12-04T08:14:01.018Z,26.08
2022-12-04T08:16:32.730Z,26.42
2022-12-04T08:19:00.953Z,27.55
2022-12-04T08:21:29.449Z,25.88
2022-12-04T08:23:59.414Z,26.95
2022-12-04T08:26:28.466Z,25.08
2022-12-04T08:28:56.961Z,25.08
2022-12-04T08:31:25.862Z,26.65
2022-12-04T08:33:54.940Z,27.20
2022-12-04T08:36:22.686Z,28.45
2022-12-04T08:38:51.032Z,28.35
2022-12-04T08:41:20.857Z,23.13
2022-12-04T08:43:48.846Z,26.40
2022-12-04T08:46:17.447Z,25.30
2022-12-04T08:48:45.920Z,27.60
2022-12-04T08:51:18.056Z,26.95
2022-12-04T08:53:46.048Z,24.70
2022-12-04T08:56:13.682Z,26.70
2022-12-04T08:58:43.595Z,24.92
2022-12-04T09:01:12.448Z,28.75
2022-12-04T09:03:40.456Z,25.08
2022-12-04T09:06:09.166Z,29.83
2022-12-04T09:11:27.758Z,29.17
2022-12-04T09:14:03.052Z,28.70
2022-12-04T09:16:30.895Z,28.67
2022-12-04T09:18:58.960Z,24.35
2022-12-04T09:21:26.666Z,25.85
2022-12-04T09:23:54.321Z,27.90
2022-12-04T09:26:24.243Z,30.08
2022-12-04T09:28:52.470Z,25.77
2022-12-04T09:31:24.564Z,26.20
2022-12-04T09:33:52.304Z,25.80
2022-12-04T09:36:20.060Z,24.83
2022-12-04T09:38:49.079Z,22.20
2022-12-04T09:41:35.608Z,28.35
2022-12-04T09:44:10.046Z,25.52
2022-12-04T09:46:45.485Z,27.88
2022-12-04T09:49:33.319Z,26.58
2022-12-04T09:52:03.907Z,26.73
2022-12-04T09:54:36.083Z,24.27
2022-12-04T09:57:19.017Z,26.02
2022-12-04T09:59:46.900Z,30.83
2022-12-04T10:02:33.476Z,26.55
2022-12-04T10:05:01.679Z,27.55
2022-12-04T10:07:34.948Z,25.80
2022-12-04T10:10:21.547Z,28.10
2022-12-04T10:12:49.133Z,27.58
2022-12-04T10:15:22.828Z,23.75
2022-12-04T10:17:58.787Z,28.45
2022-12-04T10:20:30.929Z,26.23
2022-12-04T10:23:25.172Z,27.38
2022-12-04T10:25:54.693Z,24.05
2022-12-04T10:28:37.751Z,25.63
2022-12-04T10:31:06.851Z,27.67
2022-12-04T10:33:46.751Z,23.33
2022-12-04T10:36:25.965Z,25.27
2022-12-04T10:38:56.328Z,22.40
2022-12-04T10:41:36.129Z,17.80
2022-12-04T10:44:03.751Z,23.35
2022-12-04T10:46:33.754Z,29.73
2022-12-04T10:49:01.441Z,24.50
2022-12-04T10:51:34.477Z,29.15
2022-12-04T10:54:02.401Z,23.13
2022-12-04T10:56:30.004Z,27.05
2022-12-04T10:58:58.925Z,28.60
2022-12-04T11:01:34.835Z,29.58
2022-12-04T11:04:08.812Z,24.48
2022-12-04T11:06:36.783Z,22.67
2022-12-04T11:11:46.535Z,24.30
2022-12-04T11:14:16.897Z,25.85
2022-12-04T11:16:45.870Z,23.60
2022-12-04T11:19:26.704Z,20.83
2022-12-04T11:21:56.159Z,25.35
2022-12-04T11:24:32.717Z,23.70
2022-12-04T11:27:01.795Z,24.33
2022-12-04T11:29:34.651Z,31.92
2022-12-04T11:32:07.558Z,32.92
2022-12-04T11:34:40.159Z,32.85
2022-12-04T11:37:19.233Z,33.83
2022-12-04T11:39:47.267Z,31.02
2022-12-04T11:42:17.002Z,30.38
2022-12-04T11:44:54.123Z,31.48
2022-12-04T11:47:23.248Z,32.25
2022-12-04T11:50:11.521Z,32.40
2022-12-04T11:52:46.072Z,33.92
2022-12-04T11:55:29.199Z,30.45
2022-12-04T11:58:20.275Z,31.30
2022-12-04T12:01:01.877Z,29.35
2022-12-04T12:03:41.816Z,33.25
2022-12-04T12:06:30.855Z,33.85
2022-12-04T12:09:13.913Z,32.30
2022-12-04T12:11:47.721Z,27.77
2022-12-04T12:14:34.259Z,33.72
2022-12-04T12:17:08.313Z,30.88
2022-12-04T12:19:56.281Z,35.63
2022-12-04T12:22:26.320Z,60.65
2022-12-04T12:25:12.796Z,46.08
2022-12-04T12:27:52.880Z,33.70
2022-12-04T12:30:22.203Z,29.52
2022-12-04T12:32:53.610Z,32.35
2022-12-04T12:35:32.771Z,32.15
2022-12-04T12:38:04.529Z,34.88
2022-12-04T12:40:42.466Z,32.22
2022-12-04T12:43:24.782Z,22.95
2022-12-04T12:45:57.887Z,32.03
2022-12-04T12:48:28.956Z,34.30
2022-12-04T12:51:22.015Z,31.25
2022-12-04T12:53:51.341Z,32.92
2022-12-04T12:56:19.813Z,32.28
2022-12-04T12:58:54.682Z,31.45
2022-12-04T13:02:02.240Z,30.20
2022-12-04T13:04:39.123Z,32.50
2022-12-04T13:07:06.861Z,31.88
2022-12-04T13:09:38.306Z,33.53
2022-12-04T13:12:18.175Z,34.58
2022-12-04T13:14:48.986Z,30.13
2022-12-04T13:20:09.530Z,32.63
2022-12-04T13:22:37.719Z,33.53
2022-12-04T13:25:14.292Z,31.80
2022-12-04T13:27:51.142Z,35.28
2022-12-04T13:30:24.275Z,36.58
2022-12-04T13:33:18.458Z,31.95
2022-12-04T13:38:38.679Z,33.28
2022-12-04T13:41:15.641Z,30.92
2022-12-04T13:43:44.903Z,32.67
2022-12-04T13:46:28.186Z,33.75
2022-12-04T13:48:56.227Z,33.83
2022-12-04T13:51:36.947Z,30.75
2022-12-04T13:54:25.210Z,30.42
2022-12-04T13:56:57.034Z,27.90
2022-12-04T13:59:35.698Z,31.30
2022-12-04T14:02:22.532Z,32.30
2022-12-04T14:04:58.060Z,26.73
2022-12-04T14:07:27.960Z,29.67
2022-12-04T14:12:43.886Z,29.38
2022-12-04T14:19:09.540Z,31.75
2022-12-04T14:21:45.082Z,27.38
2022-12-04T14:24:30.376Z,32.60
2022-12-04T14:27:14.060Z,23.75
2022-12-04T14:30:00.478Z,28.33
2022-12-04T14:32:32.927Z,29.17
2022-12-04T14:35:00.879Z,27.50
2022-12-04T14:37:32.088Z,29.50
2022-12-04T14:42:33.917Z,25.50
2022-12-04T14:45:08.425Z,25.40
2022-12-04T14:53:22.731Z,28.40
2022-12-04T14:56:07.274Z,24.25
2022-12-04T14:58:51.971Z,22.73
2022-12-04T15:01:32.264Z,24.98
2022-12-04T15:04:19.840Z,28.27
2022-12-04T15:06:49.690Z,25.98
2022-12-04T15:09:36.929Z,26.30
2022-12-04T15:12:33.574Z,26.23
2022-12-04T15:15:39.572Z,24.77
2022-12-04T15:18:12.444Z,24.27
2022-12-04T15:20:46.876Z,26.58
2022-12-04T15:23:20.078Z,29.42
2022-12-04T15:25:51.525Z,30.25
2022-12-04T15:28:31.114Z,29.00
2022-12-04T15:31:00.953Z,28.00
2022-12-04T15:33:34.742Z,31.13
2022-12-04T15:38:39.573Z,34.07
2022-12-04T15:41:10.307Z,31.65
2022-12-04T15:44:04.107Z,29.45
2022-12-04T15:46:33.578Z,25.33
2022-12-04T15:49:25.748Z,27.35
2022-12-04T15:52:07.499Z,28.48
2022-12-04T15:54:38.426Z,30.60
2022-12-04T15:57:08.896Z,28.58
2022-12-04T15:59:49.288Z,32.05
2022-12-04T16:02:49.394Z,34.63
2022-12-04T16:05:41.002Z,31.05
2022-12-04T16:08:31.874Z,26.23
2022-12-04T16:11:25.906Z,27.58
2022-12-04T16:14:16.804Z,24.40
2022-12-04T16:16:53.257Z,31.85
2022-12-04T16:19:39.552Z,33.03
2022-12-04T16:22:20.357Z,28.55
2022-12-04T16:24:48.485Z,27.25
2022-12-04T16:27:17.538Z,36.63
2022-12-04T16:29:49.665Z,29.52
2022-12-04T16:32:27.176Z,24.95
2022-12-04T16:34:55.521Z,29.60
2022-12-04T16:37:25.833Z,27.55
2022-12-04T16:39:53.998Z,27.17
2022-12-04T16:42:23.675Z,28.23
2022-12-04T16:44:56.917Z,22.65
2022-12-04T16:47:33.327Z,29.95
2022-12-04T16:50:09.832Z,26.13
2022-12-04T16:52:45.609Z,35.28
2022-12-04T16:55:32.163Z,28.75
2022-12-04T16:57:59.976Z,31.17
2022-12-04T17:00:29.931Z,25.65
2022-12-04T17:02:57.596Z,29.52
2022-12-04T17:05:29.132Z,25.15
2022-12-04T17:07:56.946Z,28.73
2022-12-04T17:10:24.695Z,26.52
2022-12-04T17:12:53.432Z,30.25
2022-12-04T17:15:21.079Z,28.52
2022-12-04T17:17:49.780Z,29.80
2022-12-04T17:20:18.610Z,28.85
2022-12-04T17:22:46.277Z,29.42
2022-12-04T17:25:14.286Z,31.17
2022-12-04T17:27:41.823Z,37.92
2022-12-04T17:30:10.220Z,30.35
2022-12-04T17:32:48.033Z,31.50
2022-12-04T17:35:16.126Z,32.17
2022-12-04T17:37:43.820Z,33.22
2022-12-04T17:40:15.879Z,33.25
2022-12-04T17:42:43.717Z,34.00
2022-12-04T17:45:12.033Z,31.85
2022-12-04T17:47:39.714Z,31.60
2022-12-04T17:50:07.644Z,34.28
2022-12-04T17:52:35.340Z,35.63
2022-12-04T17:55:02.997Z,32.33
2022-12-04T17:57:30.703Z,37.33
2022-12-04T18:00:00.830Z,34.55
2022-12-04T18:02:30.568Z,33.38
2022-12-04T18:04:58.265Z,34.92
2022-12-04T18:07:25.965Z,36.35
2022-12-04T18:09:53.637Z,35.08
2022-12-04T18:12:21.246Z,31.42
2022-12-04T18:14:49.034Z,31.40
2022-12-04T18:17:17.539Z,34.00
2022-12-04T18:19:45.070Z,31.20
2022-12-04T18:22:12.599Z,30.00
2022-12-04T18:24:40.203Z,35.53
2022-12-04T18:27:08.062Z,35.95
2022-12-04T18:29:36.128Z,38.72
2022-12-04T18:32:03.758Z,38.40
2022-12-04T18:34:31.359Z,48.38
2022-12-04T18:36:58.938Z,43.97
2022-12-04T18:39:27.305Z,41.25
2022-12-04T18:41:56.895Z,39.15
2022-12-04T18:44:25.061Z,39.30
2022-12-04T18:46:55.675Z,34.58
2022-12-04T18:49:24.240Z,36.97
2022-12-04T18:51:51.798Z,37.55
2022-12-04T18:54:21.710Z,45.22
2022-12-04T18:56:55.397Z,32.88
2022-12-04T18:59:24.733Z,38.95
2022-12-04T19:01:53.177Z,34.22
2022-12-04T19:04:22.142Z,33.00
2022-12-04T19:06:57.704Z,28.63
2022-12-04T19:10:02.597Z,31.45
2022-12-04T19:12:16.981Z,31.33
2022-12-04T19:14:46.726Z,28.85
2022-12-04T19:17:15.049Z,30.40
2022-12-04T19:19:42.584Z,29.67
2022-12-04T19:22:10.417Z,29.75
2022-12-04T19:24:45.843Z,34.03
2022-12-04T19:27:16.119Z,31.02
2022-12-04T19:29:47.895Z,30.47
2022-12-04T19:32:17.813Z,33.28
2022-12-04T19:34:45.591Z,36.97
2022-12-04T19:37:13.120Z,32.55
2022-12-04T19:39:40.794Z,35.55
2022-12-04T19:42:09.796Z,36.45
2022-12-04T19:44:53.280Z,32.80
2022-12-04T19:47:20.998Z,35.67
2022-12-04T19:49:48.660Z,35.25
2022-12-04T19:52:16.544Z,34.58
2022-12-04T19:54:44.292Z,36.38
2022-12-04T19:57:14.695Z,38.70
2022-12-04T19:59:46.260Z,25.00
2022-12-04T20:02:25.560Z,38.35
2022-12-04T20:04:55.637Z,38.17
2022-12-04T20:07:23.254Z,35.85
2022-12-04T20:09:55.075Z,34.65
2022-12-04T20:12:23.227Z,34.30
2022-12-04T20:14:50.890Z,40.47
2022-12-04T20:17:18.424Z,42.72
2022-12-04T20:19:46.058Z,39.63
2022-12-04T20:22:13.622Z,43.88
2022-12-04T20:24:41.170Z,47.78
2022-12-04T20:27:08.746Z,44.08
2022-12-04T20:29:36.413Z,40.72
2022-12-04T20:32:03.970Z,43.75
2022-12-04T20:34:31.554Z,42.17
2022-12-04T20:36:59.256Z,41.75
2022-12-04T20:39:29.743Z,46.00
2022-12-04T20:41:57.458Z,40.22
2022-12-04T20:44:25.006Z,41.90
2022-12-04T20:46:53.301Z,42.83
2022-12-04T20:49:22.380Z,40.78
2022-12-04T20:51:51.241Z,43.10
2022-12-04T20:54:20.373Z,42.35
2022-12-04T20:56:48.985Z,41.70
2022-12-04T20:59:18.044Z,35.92
2022-12-04T21:01:46.058Z,37.97
2022-12-04T21:04:13.933Z,41.72
2022-12-04T21:06:42.001Z,37.70
2022-12-04T21:09:12.468Z,35.67
2022-12-04T21:11:41.762Z,38.13
2022-12-04T21:14:34.478Z,40.58
2022-12-04T21:17:02.329Z,32.78
2022-12-04T21:19:29.863Z,42.03
2022-12-04T21:21:57.444Z,36.45
2022-12-04T21:24:30.342Z,42.75
2022-12-04T21:26:57.873Z,36.15
2022-12-04T21:29:25.484Z,45.10
2022-12-04T21:31:53.127Z,36.30
2022-12-04T21:34:20.866Z,43.00
2022-12-04T21:36:48.601Z,36.53
2022-12-04T21:39:16.441Z,35.53
2022-12-04T21:42:02.672Z,32.70
2022-12-04T21:44:30.441Z,31.60
2022-12-04T21:46:58.063Z,30.17
2022-12-04T21:49:25.751Z,26.20
2022-12-04T21:51:58.169Z,21.73
2022-12-04T21:54:29.136Z,23.48
2022-12-04T21:56:57.296Z,21.83
2022-12-04T21:59:25.602Z,26.88
2022-12-04T22:01:53.861Z,22.65
2022-12-04T22:04:21.969Z,25.40
2022-12-04T22:06:49.882Z,24.90
2022-12-04T22:09:17.536Z,24.83
2022-12-04T22:11:48.860Z,25.48
2022-12-04T22:14:25.152Z,21.67
2022-12-04T22:17:01.573Z,21.55
2022-12-04T22:19:29.144Z,21.08
2022-12-04T22:21:56.764Z,19.63
2022-12-04T22:24:24.423Z,19.48
2022-12-04T22:26:52.333Z,18.52
2022-12-04T22:29:49.232Z,18.25
2022-12-04T22:32:08.495Z,17.98
2022-12-04T22:34:36.127Z,21.83
2022-12-04T22:37:03.724Z,18.88
2022-12-04T22:39:36.134Z,16.40
2022-12-04T22:42:03.891Z,20.10
2022-12-04T22:44:31.391Z,20.35
2022-12-04T22:46:59.087Z,17.17
2022-12-04T22:49:26.832Z,20.55
2022-12-04T22:51:54.425Z,19.58
2022-12-04T22:54:21.970Z,19.65
2022-12-04T22:56:49.705Z,18.35
2022-12-04T22:59:17.347Z,19.92
2022-12-04T23:01:44.895Z,17.25
2022-12-04T23:04:12.415Z,17.80
2022-12-04T23:06:40.071Z,17.15
2022-12-04T23:09:09.261Z,15.77
2022-12-04T23:11:37.153Z,17.10
2022-12-04T23:14:07.133Z,16.52
2022-12-04T23:16:35.872Z,17.83
2022-12-04T23:19:03.762Z,19.80
2022-12-04T23:21:31.456Z,18.42
2022-12-04T23:23:59.118Z,22.63
2022-12-04T23:26:34.095Z,19.10
2022-12-04T23:29:01.904Z,18.30
2022-12-04T23:31:29.891Z,18.42
2022-12-04T23:33:57.512Z,17.17
2022-12-04T23:36:25.091Z,28.48
2022-12-04T23:38:52.667Z,20.23
2022-12-04T23:41:21.948Z,25.25
2022-12-04T23:43:50.290Z,17.73
2022-12-04T23:46:19.758Z,18.60
2022-12-04T23:48:48.239Z,19.20
2022-12-04T23:51:17.107Z,19.88
2022-12-04T23:53:44.901Z,17.73
2022-12-04T23:56:12.451Z,17.23
2022-12-04T23:58:40.372Z,20.13
